sensor_id;sensor_type;location;lat;lon;timestamp;P1;durP1;ratioP1;P2;durP2;ratioP2
68375;SDS011;55318;52.068;5.188;2023-02-28T00:01:10;2.1;;;1.2;;
68375;SDS011;55318;52.068;5.188;2023-02-28T00:02:47;5.0;;;1.7;;
68375;SDS011;55318;52.068;5.188;2023-02-28T00:06:00;4.3;;;1.9;;
68375;SDS011;55318;52.068;5.188;2023-02-28T00:07:37;3.3;;;1.4;;
68375;SDS011;55318;52.068;5.188;2023-02-28T00:09:14;2.8;;;1.3;;
68375;SDS011;55318;52.068;5.188;2023-02-28T00:10:50;2.6;;;1.7;;
68375;SDS011;55318;52.068;5.188;2023-02-28T00:14:02;3.4;;;1.2;;
68375;SDS011;55318;52.068;5.188;2023-02-28T00:15:38;3.2;;;1.6;;
68375;SDS011;55318;52.068;5.188;2023-02-28T00:17:15;1.9;;;1.2;;
68375;SDS011;55318;52.068;5.188;2023-02-28T00:20:27;4.1;;;1.2;;
68375;SDS011;55318;52.068;5.188;2023-02-28T00:22:03;1.11;;;0.9;;
68375;SDS011;55318;52.068;5.188;2023-02-28T00:23:39;2.6;;;1.7;;
68375;SDS011;55318;52.068;5.188;2023-02-28T00:26:55;4.0;;;1.5;;
68375;SDS011;55318;52.068;5.188;2023-02-28T00:28:32;4.3;;;1.9;;
68375;SDS011;55318;52.068;5.188;2023-02-28T00:30:09;2.21;;;1.5;;
68375;SDS011;55318;52.068;5.188;2023-02-28T00:31:51;3.4;;;1.5;;
68375;SDS011;55318;52.068;5.188;2023-02-28T00:35:05;2.9;;;1.5;;
68375;SDS011;55318;52.068;5.188;2023-02-28T00:36:42;2.8;;;1.2;;
68375;SDS011;55318;52.068;5.188;2023-02-28T00:38:19;2.7;;;1.5;;
68375;SDS011;55318;52.068;5.188;2023-02-28T00:41:32;2.31;;;1.5;;
68375;SDS011;55318;52.068;5.188;2023-02-28T00:43:08;4.1;;;1.5;;
68375;SDS011;55318;52.068;5.188;2023-02-28T00:44:44;3.1;;;1.5;;
68375;SDS011;55318;52.068;5.188;2023-02-28T00:47:56;3.1;;;1.5;;
68375;SDS011;55318;52.068;5.188;2023-02-28T00:49:32;3.4;;;1.7;;
68375;SDS011;55318;52.068;5.188;2023-02-28T00:51:09;3.8;;;1.4;;
68375;SDS011;55318;52.068;5.188;2023-02-28T00:52:45;3.0;;;1.6;;
68375;SDS011;55318;52.068;5.188;2023-02-28T00:55:59;3.0;;;1.6;;
68375;SDS011;55318;52.068;5.188;2023-02-28T00:57:35;3.9;;;1.6;;
68375;SDS011;55318;52.068;5.188;2023-02-28T00:59:12;1.3;;;1.2;;
68375;SDS011;55318;52.068;5.188;2023-02-28T01:02:26;4.0;;;1.7;;
68375;SDS011;55318;52.068;5.188;2023-02-28T01:04:02;4.0;;;1.7;;
68375;SDS011;55318;52.068;5.188;2023-02-28T01:05:38;6.2;;;1.8;;
68375;SDS011;55318;52.068;5.188;2023-02-28T01:08:50;4.41;;;1.4;;
68375;SDS011;55318;52.068;5.188;2023-02-28T01:10:27;1.4;;;1.11;;
68375;SDS011;55318;52.068;5.188;2023-02-28T01:12:04;1.4;;;1.11;;
68375;SDS011;55318;52.068;5.188;2023-02-28T01:13:41;2.9;;;1.4;;
68375;SDS011;55318;52.068;5.188;2023-02-28T01:16:53;1.2;;;1.0;;
68375;SDS011;55318;52.068;5.188;2023-02-28T01:18:29;3.4;;;1.4;;
68375;SDS011;55318;52.068;5.188;2023-02-28T01:20:06;7.6;;;1.2;;
68375;SDS011;55318;52.068;5.188;2023-02-28T01:23:18;4.5;;;1.6;;
68375;SDS011;55318;52.068;5.188;2023-02-28T01:24:55;5.0;;;2.1;;
68375;SDS011;55318;52.068;5.188;2023-02-28T01:26:32;2.21;;;1.4;;
68375;SDS011;55318;52.068;5.188;2023-02-28T01:29:44;2.1;;;1.6;;
68375;SDS011;55318;52.068;5.188;2023-02-28T01:31:20;3.2;;;1.2;;
68375;SDS011;55318;52.068;5.188;2023-02-28T01:32:58;4.2;;;1.2;;
68375;SDS011;55318;52.068;5.188;2023-02-28T01:34:35;2.1;;;1.2;;
68375;SDS011;55318;52.068;5.188;2023-02-28T01:37:51;4.5;;;2.0;;
68375;SDS011;55318;52.068;5.188;2023-02-28T01:39:27;4.7;;;1.6;;
68375;SDS011;55318;52.068;5.188;2023-02-28T01:41:03;3.1;;;1.0;;
68375;SDS011;55318;52.068;5.188;2023-02-28T01:45:22;3.4;;;1.5;;
68375;SDS011;55318;52.068;5.188;2023-02-28T01:47:01;4.3;;;1.2;;
68375;SDS011;55318;52.068;5.188;2023-02-28T01:50:19;7.3;;;1.3;;
68375;SDS011;55318;52.068;5.188;2023-02-28T01:51:58;3.9;;;1.4;;
68375;SDS011;55318;52.068;5.188;2023-02-28T01:53:35;3.1;;;1.7;;
68375;SDS011;55318;52.068;5.188;2023-02-28T01:56:58;2.5;;;1.3;;
68375;SDS011;55318;52.068;5.188;2023-02-28T01:58:40;1.4;;;1.0;;
68375;SDS011;55318;52.068;5.188;2023-02-28T02:00:17;3.4;;;1.9;;
68375;SDS011;55318;52.068;5.188;2023-02-28T02:01:59;2.4;;;1.3;;
68375;SDS011;55318;52.068;5.188;2023-02-28T02:05:14;3.4;;;1.6;;
68375;SDS011;55318;52.068;5.188;2023-02-28T02:06:53;4.0;;;1.4;;
68375;SDS011;55318;52.068;5.188;2023-02-28T02:08:30;2.0;;;1.4;;
68375;SDS011;55318;52.068;5.188;2023-02-28T02:10:10;2.5;;;1.3;;
68375;SDS011;55318;52.068;5.188;2023-02-28T02:13:34;1.8;;;1.5;;
68375;SDS011;55318;52.068;5.188;2023-02-28T02:15:29;2.5;;;1.3;;
68375;SDS011;55318;52.068;5.188;2023-02-28T02:17:14;3.3;;;1.7;;
68375;SDS011;55318;52.068;5.188;2023-02-28T02:19:02;3.4;;;1.11;;
68375;SDS011;55318;52.068;5.188;2023-02-28T02:21:36;2.7;;;1.0;;
68375;SDS011;55318;52.068;5.188;2023-02-28T02:27:17;3.1;;;1.5;;
68375;SDS011;55318;52.068;5.188;2023-02-28T02:29:49;2.9;;;1.5;;
68375;SDS011;55318;52.068;5.188;2023-02-28T02:33:09;1.7;;;1.3;;
68375;SDS011;55318;52.068;5.188;2023-02-28T02:35:27;5.6;;;2.0;;
68375;SDS011;55318;52.068;5.188;2023-02-28T02:38:56;3.2;;;1.5;;
68375;SDS011;55318;52.068;5.188;2023-02-28T02:40:42;3.0;;;1.3;;
68375;SDS011;55318;52.068;5.188;2023-02-28T02:42:31;2.5;;;1.2;;
68375;SDS011;55318;52.068;5.188;2023-02-28T02:44:16;2.7;;;1.11;;
68375;SDS011;55318;52.068;5.188;2023-02-28T02:45:58;5.7;;;1.8;;
68375;SDS011;55318;52.068;5.188;2023-02-28T02:49:19;4.0;;;2.31;;
68375;SDS011;55318;52.068;5.188;2023-02-28T02:51:00;1.8;;;1.11;;
68375;SDS011;55318;52.068;5.188;2023-02-28T02:52:42;2.4;;;1.7;;
68375;SDS011;55318;52.068;5.188;2023-02-28T02:54:32;2.21;;;1.3;;
68375;SDS011;55318;52.068;5.188;2023-02-28T02:56:12;2.5;;;1.5;;
68375;SDS011;55318;52.068;5.188;2023-02-28T02:59:33;5.7;;;1.6;;
68375;SDS011;55318;52.068;5.188;2023-02-28T03:01:14;3.8;;;1.7;;
68375;SDS011;55318;52.068;5.188;2023-02-28T03:02:54;2.4;;;1.4;;
68375;SDS011;55318;52.068;5.188;2023-02-28T03:04:33;2.6;;;1.5;;
68375;SDS011;55318;52.068;5.188;2023-02-28T03:07:54;2.9;;;2.1;;
68375;SDS011;55318;52.068;5.188;2023-02-28T03:09:32;2.5;;;1.7;;
68375;SDS011;55318;52.068;5.188;2023-02-28T03:11:12;2.7;;;1.5;;
68375;SDS011;55318;52.068;5.188;2023-02-28T03:12:52;3.0;;;1.3;;
68375;SDS011;55318;52.068;5.188;2023-02-28T03:16:33;2.8;;;1.0;;
68375;SDS011;55318;52.068;5.188;2023-02-28T03:18:17;3.8;;;1.7;;
68375;SDS011;55318;52.068;5.188;2023-02-28T03:20:04;3.0;;;1.3;;
68375;SDS011;55318;52.068;5.188;2023-02-28T03:21:53;2.0;;;1.5;;
68375;SDS011;55318;52.068;5.188;2023-02-28T03:23:42;1.7;;;1.4;;
68375;SDS011;55318;52.068;5.188;2023-02-28T03:25:28;2.31;;;1.5;;
68375;SDS011;55318;52.068;5.188;2023-02-28T03:28:58;2.1;;;1.2;;
68375;SDS011;55318;52.068;5.188;2023-02-28T03:30:42;3.0;;;1.6;;
68375;SDS011;55318;52.068;5.188;2023-02-28T03:32:25;4.61;;;1.4;;
68375;SDS011;55318;52.068;5.188;2023-02-28T03:34:10;4.1;;;1.6;;
68375;SDS011;55318;52.068;5.188;2023-02-28T03:35:54;5.0;;;1.11;;
68375;SDS011;55318;52.068;5.188;2023-02-28T03:39:17;2.1;;;1.5;;
68375;SDS011;55318;52.068;5.188;2023-02-28T03:40:58;2.8;;;1.3;;
68375;SDS011;55318;52.068;5.188;2023-02-28T03:42:41;3.5;;;1.6;;
68375;SDS011;55318;52.068;5.188;2023-02-28T03:44:22;2.4;;;1.6;;
68375;SDS011;55318;52.068;5.188;2023-02-28T03:47:47;2.4;;;1.5;;
68375;SDS011;55318;52.068;5.188;2023-02-28T03:49:29;6.3;;;1.8;;
68375;SDS011;55318;52.068;5.188;2023-02-28T03:51:10;2.8;;;1.4;;
68375;SDS011;55318;52.068;5.188;2023-02-28T03:52:52;5.4;;;1.8;;
68375;SDS011;55318;52.068;5.188;2023-02-28T03:56:22;4.7;;;1.7;;
68375;SDS011;55318;52.068;5.188;2023-02-28T03:58:04;2.21;;;1.0;;
68375;SDS011;55318;52.068;5.188;2023-02-28T03:59:52;3.0;;;1.6;;
68375;SDS011;55318;52.068;5.188;2023-02-28T04:01:35;2.8;;;2.21;;
68375;SDS011;55318;52.068;5.188;2023-02-28T04:03:16;2.8;;;2.21;;
68375;SDS011;55318;52.068;5.188;2023-02-28T04:06:29;3.6;;;1.5;;
68375;SDS011;55318;52.068;5.188;2023-02-28T04:08:08;2.21;;;1.5;;
68375;SDS011;55318;52.068;5.188;2023-02-28T04:09:44;1.6;;;1.4;;
68375;SDS011;55318;52.068;5.188;2023-02-28T04:13:02;3.1;;;1.6;;
68375;SDS011;55318;52.068;5.188;2023-02-28T04:14:38;3.6;;;1.3;;
68375;SDS011;55318;52.068;5.188;2023-02-28T04:16:14;2.6;;;1.9;;
68375;SDS011;55318;52.068;5.188;2023-02-28T04:17:51;2.5;;;1.4;;
68375;SDS011;55318;52.068;5.188;2023-02-28T04:21:04;4.41;;;1.5;;
68375;SDS011;55318;52.068;5.188;2023-02-28T04:22:41;1.5;;;1.3;;
68375;SDS011;55318;52.068;5.188;2023-02-28T04:24:18;2.7;;;1.4;;
68375;SDS011;55318;52.068;5.188;2023-02-28T04:27:32;2.5;;;1.2;;
68375;SDS011;55318;52.068;5.188;2023-02-28T04:29:10;5.0;;;2.31;;
68375;SDS011;55318;52.068;5.188;2023-02-28T04:30:53;3.8;;;1.6;;
68375;SDS011;55318;52.068;5.188;2023-02-28T04:32:31;2.0;;;1.8;;
68375;SDS011;55318;52.068;5.188;2023-02-28T04:35:43;6.0;;;1.7;;
68375;SDS011;55318;52.068;5.188;2023-02-28T04:37:19;4.7;;;1.8;;
68375;SDS011;55318;52.068;5.188;2023-02-28T04:38:55;2.6;;;1.8;;
68375;SDS011;55318;52.068;5.188;2023-02-28T04:42:09;3.0;;;1.3;;
68375;SDS011;55318;52.068;5.188;2023-02-28T04:43:46;3.0;;;1.5;;
68375;SDS011;55318;52.068;5.188;2023-02-28T04:45:22;4.1;;;1.5;;
68375;SDS011;55318;52.068;5.188;2023-02-28T04:46:58;2.0;;;1.3;;
68375;SDS011;55318;52.068;5.188;2023-02-28T04:50:13;2.0;;;1.4;;
68375;SDS011;55318;52.068;5.188;2023-02-28T04:51:49;3.1;;;1.2;;
68375;SDS011;55318;52.068;5.188;2023-02-28T04:53:26;3.0;;;1.2;;
68375;SDS011;55318;52.068;5.188;2023-02-28T04:56:41;1.3;;;1.0;;
68375;SDS011;55318;52.068;5.188;2023-02-28T04:58:18;0.9;;;0.9;;
68375;SDS011;55318;52.068;5.188;2023-02-28T04:59:54;3.6;;;1.2;;
68375;SDS011;55318;52.068;5.188;2023-02-28T05:03:08;3.3;;;1.0;;
68375;SDS011;55318;52.068;5.188;2023-02-28T05:04:44;1.7;;;1.2;;
68375;SDS011;55318;52.068;5.188;2023-02-28T05:06:21;2.5;;;1.3;;
68375;SDS011;55318;52.068;5.188;2023-02-28T05:07:59;4.3;;;1.3;;
68375;SDS011;55318;52.068;5.188;2023-02-28T05:11:14;2.1;;;1.3;;
68375;SDS011;55318;52.068;5.188;2023-02-28T05:12:52;1.6;;;1.0;;
68375;SDS011;55318;52.068;5.188;2023-02-28T05:14:28;1.4;;;1.0;;
68375;SDS011;55318;52.068;5.188;2023-02-28T05:17:42;3.2;;;1.4;;
68375;SDS011;55318;52.068;5.188;2023-02-28T05:19:19;1.9;;;1.5;;
68375;SDS011;55318;52.068;5.188;2023-02-28T05:20:55;2.1;;;1.3;;
68375;SDS011;55318;52.068;5.188;2023-02-28T05:22:31;1.2;;;1.11;;
68375;SDS011;55318;52.068;5.188;2023-02-28T05:25:47;3.3;;;1.2;;
68375;SDS011;55318;52.068;5.188;2023-02-28T05:27:23;2.31;;;1.3;;
68375;SDS011;55318;52.068;5.188;2023-02-28T05:30:36;1.8;;;1.11;;
68375;SDS011;55318;52.068;5.188;2023-02-28T05:32:12;4.0;;;1.3;;
68375;SDS011;55318;52.068;5.188;2023-02-28T05:33:49;2.4;;;1.11;;
68375;SDS011;55318;52.068;5.188;2023-02-28T05:35:26;1.8;;;1.11;;
68375;SDS011;55318;52.068;5.188;2023-02-28T05:38:38;2.6;;;1.4;;
68375;SDS011;55318;52.068;5.188;2023-02-28T05:40:15;2.4;;;1.4;;
68375;SDS011;55318;52.068;5.188;2023-02-28T05:41:52;2.0;;;1.6;;
68375;SDS011;55318;52.068;5.188;2023-02-28T05:43:28;1.5;;;1.11;;
68375;SDS011;55318;52.068;5.188;2023-02-28T05:46:41;1.8;;;1.7;;
68375;SDS011;55318;52.068;5.188;2023-02-28T05:48:17;2.4;;;1.3;;
68375;SDS011;55318;52.068;5.188;2023-02-28T05:49:53;1.4;;;1.2;;
68375;SDS011;55318;52.068;5.188;2023-02-28T05:53:06;2.7;;;1.3;;
68375;SDS011;55318;52.068;5.188;2023-02-28T05:54:42;4.41;;;1.4;;
68375;SDS011;55318;52.068;5.188;2023-02-28T05:56:18;1.9;;;1.3;;
68375;SDS011;55318;52.068;5.188;2023-02-28T05:59:30;2.0;;;1.6;;
68375;SDS011;55318;52.068;5.188;2023-02-28T06:01:30;2.31;;;1.4;;
68375;SDS011;55318;52.068;5.188;2023-02-28T06:03:08;3.0;;;1.7;;
68375;SDS011;55318;52.068;5.188;2023-02-28T06:04:45;3.1;;;1.8;;
68375;SDS011;55318;52.068;5.188;2023-02-28T06:07:58;2.1;;;1.3;;
68375;SDS011;55318;52.068;5.188;2023-02-28T06:09:34;3.1;;;1.3;;
68375;SDS011;55318;52.068;5.188;2023-02-28T06:11:11;3.4;;;1.7;;
68375;SDS011;55318;52.068;5.188;2023-02-28T06:12:48;2.31;;;1.3;;
68375;SDS011;55318;52.068;5.188;2023-02-28T06:16:01;2.4;;;1.7;;
68375;SDS011;55318;52.068;5.188;2023-02-28T06:17:37;2.6;;;1.5;;
68375;SDS011;55318;52.068;5.188;2023-02-28T06:19:13;1.4;;;1.2;;
68375;SDS011;55318;52.068;5.188;2023-02-28T06:22:28;2.0;;;1.6;;
68375;SDS011;55318;52.068;5.188;2023-02-28T06:24:04;2.31;;;1.6;;
68375;SDS011;55318;52.068;5.188;2023-02-28T06:25:44;4.7;;;1.8;;
68375;SDS011;55318;52.068;5.188;2023-02-28T06:27:20;2.31;;;1.5;;
68375;SDS011;55318;52.068;5.188;2023-02-28T06:30:33;2.21;;;1.3;;
68375;SDS011;55318;52.068;5.188;2023-02-28T06:32:09;2.8;;;1.8;;
68375;SDS011;55318;52.068;5.188;2023-02-28T06:33:45;2.7;;;1.6;;
68375;SDS011;55318;52.068;5.188;2023-02-28T06:36:58;1.8;;;1.7;;
68375;SDS011;55318;52.068;5.188;2023-02-28T06:38:36;2.5;;;1.5;;
68375;SDS011;55318;52.068;5.188;2023-02-28T06:40:14;2.7;;;2.0;;
68375;SDS011;55318;52.068;5.188;2023-02-28T06:43:27;5.3;;;2.1;;
68375;SDS011;55318;52.068;5.188;2023-02-28T06:45:06;1.9;;;1.7;;
68375;SDS011;55318;52.068;5.188;2023-02-28T06:46:43;5.0;;;2.21;;
68375;SDS011;55318;52.068;5.188;2023-02-28T06:48:20;2.1;;;1.5;;
68375;SDS011;55318;52.068;5.188;2023-02-28T06:51:33;3.3;;;2.1;;
68375;SDS011;55318;52.068;5.188;2023-02-28T06:53:09;2.8;;;2.0;;
68375;SDS011;55318;52.068;5.188;2023-02-28T06:54:45;4.91;;;2.8;;
68375;SDS011;55318;52.068;5.188;2023-02-28T06:57:57;3.3;;;1.9;;
68375;SDS011;55318;52.068;5.188;2023-02-28T06:59:34;1.6;;;1.5;;
68375;SDS011;55318;52.068;5.188;2023-02-28T07:01:10;2.21;;;1.4;;
68375;SDS011;55318;52.068;5.188;2023-02-28T07:04:25;2.5;;;1.4;;
68375;SDS011;55318;52.068;5.188;2023-02-28T07:06:01;2.7;;;1.8;;
68375;SDS011;55318;52.068;5.188;2023-02-28T07:07:38;2.9;;;1.9;;
68375;SDS011;55318;52.068;5.188;2023-02-28T07:09:15;4.0;;;2.0;;
68375;SDS011;55318;52.068;5.188;2023-02-28T07:12:28;2.21;;;1.9;;
68375;SDS011;55318;52.068;5.188;2023-02-28T07:14:05;2.6;;;1.6;;
68375;SDS011;55318;52.068;5.188;2023-02-28T07:15:41;2.8;;;2.1;;
68375;SDS011;55318;52.068;5.188;2023-02-28T07:18:53;1.9;;;1.7;;
68375;SDS011;55318;52.068;5.188;2023-02-28T07:20:29;2.0;;;1.9;;
68375;SDS011;55318;52.068;5.188;2023-02-28T07:22:07;2.8;;;1.6;;
68375;SDS011;55318;52.068;5.188;2023-02-28T07:25:20;4.5;;;2.0;;
68375;SDS011;55318;52.068;5.188;2023-02-28T07:26:56;4.2;;;2.1;;
68375;SDS011;55318;52.068;5.188;2023-02-28T07:28:33;3.9;;;2.21;;
68375;SDS011;55318;52.068;5.188;2023-02-28T07:30:09;3.3;;;2.1;;
68375;SDS011;55318;52.068;5.188;2023-02-28T07:33:22;3.3;;;1.9;;
68375;SDS011;55318;52.068;5.188;2023-02-28T07:34:58;2.4;;;1.8;;
68375;SDS011;55318;52.068;5.188;2023-02-28T07:36:34;3.6;;;2.31;;
68375;SDS011;55318;52.068;5.188;2023-02-28T07:39:47;2.9;;;2.0;;
68375;SDS011;55318;52.068;5.188;2023-02-28T07:41:23;2.8;;;1.9;;
68375;SDS011;55318;52.068;5.188;2023-02-28T07:42:59;3.3;;;2.0;;
68375;SDS011;55318;52.068;5.188;2023-02-28T07:46:14;6.2;;;1.7;;
68375;SDS011;55318;52.068;5.188;2023-02-28T07:47:51;3.4;;;1.8;;
68375;SDS011;55318;52.068;5.188;2023-02-28T07:49:29;5.6;;;2.1;;
68375;SDS011;55318;52.068;5.188;2023-02-28T07:51:05;5.6;;;2.1;;
68375;SDS011;55318;52.068;5.188;2023-02-28T07:54:18;3.1;;;2.1;;
68375;SDS011;55318;52.068;5.188;2023-02-28T07:55:54;3.6;;;2.31;;
68375;SDS011;55318;52.068;5.188;2023-02-28T07:57:31;2.6;;;1.9;;
68375;SDS011;55318;52.068;5.188;2023-02-28T08:00:43;3.7;;;2.31;;
68375;SDS011;55318;52.068;5.188;2023-02-28T08:02:20;5.8;;;2.21;;
68375;SDS011;55318;52.068;5.188;2023-02-28T08:03:56;2.9;;;1.9;;
68375;SDS011;55318;52.068;5.188;2023-02-28T08:07:08;3.1;;;2.21;;
68375;SDS011;55318;52.068;5.188;2023-02-28T08:08:44;3.1;;;2.1;;
68375;SDS011;55318;52.068;5.188;2023-02-28T08:10:20;3.3;;;1.9;;
68375;SDS011;55318;52.068;5.188;2023-02-28T08:11:57;2.7;;;1.9;;
68375;SDS011;55318;52.068;5.188;2023-02-28T08:15:09;4.2;;;2.21;;
68375;SDS011;55318;52.068;5.188;2023-02-28T08:16:46;3.2;;;2.21;;
68375;SDS011;55318;52.068;5.188;2023-02-28T08:18:22;2.8;;;2.0;;
68375;SDS011;55318;52.068;5.188;2023-02-28T08:21:36;3.2;;;2.0;;
68375;SDS011;55318;52.068;5.188;2023-02-28T08:23:12;3.0;;;2.1;;
68375;SDS011;55318;52.068;5.188;2023-02-28T08:24:49;2.4;;;2.1;;
68375;SDS011;55318;52.068;5.188;2023-02-28T08:28:01;2.4;;;2.1;;
68375;SDS011;55318;52.068;5.188;2023-02-28T08:29:37;3.7;;;2.0;;
68375;SDS011;55318;52.068;5.188;2023-02-28T08:31:15;5.7;;;1.7;;
68375;SDS011;55318;52.068;5.188;2023-02-28T08:32:53;4.0;;;2.31;;
68375;SDS011;55318;52.068;5.188;2023-02-28T08:36:05;2.4;;;2.0;;
68375;SDS011;55318;52.068;5.188;2023-02-28T08:37:43;2.31;;;1.5;;
68375;SDS011;55318;52.068;5.188;2023-02-28T08:39:19;1.6;;;1.4;;
68375;SDS011;55318;52.068;5.188;2023-02-28T08:42:34;1.5;;;1.3;;
68375;SDS011;55318;52.068;5.188;2023-02-28T08:44:11;3.1;;;1.4;;
68375;SDS011;55318;52.068;5.188;2023-02-28T08:45:50;3.0;;;1.11;;
68375;SDS011;55318;52.068;5.188;2023-02-28T08:49:03;2.9;;;1.4;;
68375;SDS011;55318;52.068;5.188;2023-02-28T08:50:39;2.21;;;1.11;;
68375;SDS011;55318;52.068;5.188;2023-02-28T08:52:15;1.8;;;0.9;;
68375;SDS011;55318;52.068;5.188;2023-02-28T08:53:53;2.0;;;1.3;;
68375;SDS011;55318;52.068;5.188;2023-02-28T08:57:06;1.7;;;1.4;;
68375;SDS011;55318;52.068;5.188;2023-02-28T08:58:42;1.5;;;1.2;;
68375;SDS011;55318;52.068;5.188;2023-02-28T09:00:21;1.5;;;1.11;;
68375;SDS011;55318;52.068;5.188;2023-02-28T09:03:33;3.0;;;1.3;;
68375;SDS011;55318;52.068;5.188;2023-02-28T09:05:10;3.3;;;1.3;;
68375;SDS011;55318;52.068;5.188;2023-02-28T09:06:46;1.8;;;1.5;;
68375;SDS011;55318;52.068;5.188;2023-02-28T09:09:59;1.7;;;1.5;;
68375;SDS011;55318;52.068;5.188;2023-02-28T09:11:35;4.91;;;1.6;;
68375;SDS011;55318;52.068;5.188;2023-02-28T09:13:12;1.7;;;1.0;;
68375;SDS011;55318;52.068;5.188;2023-02-28T09:14:48;1.9;;;1.3;;
68375;SDS011;55318;52.068;5.188;2023-02-28T09:18:01;1.9;;;1.4;;
68375;SDS011;55318;52.068;5.188;2023-02-28T09:19:37;2.1;;;1.4;;
68375;SDS011;55318;52.068;5.188;2023-02-28T09:21:14;1.11;;;1.0;;
68375;SDS011;55318;52.068;5.188;2023-02-28T09:24:28;1.2;;;0.9;;
68375;SDS011;55318;52.068;5.188;2023-02-28T09:26:04;1.8;;;1.0;;
68375;SDS011;55318;52.068;5.188;2023-02-28T09:27:41;2.4;;;1.8;;
68375;SDS011;55318;52.068;5.188;2023-02-28T09:30:54;3.8;;;1.5;;
68375;SDS011;55318;52.068;5.188;2023-02-28T09:32:31;3.1;;;0.9;;
68375;SDS011;55318;52.068;5.188;2023-02-28T09:34:07;0.8;;;0.8;;
68375;SDS011;55318;52.068;5.188;2023-02-28T09:35:43;1.5;;;1.11;;
68375;SDS011;55318;52.068;5.188;2023-02-28T09:38:55;1.8;;;1.3;;
68375;SDS011;55318;52.068;5.188;2023-02-28T09:40:32;1.7;;;1.11;;
68375;SDS011;55318;52.068;5.188;2023-02-28T09:42:17;1.11;;;1.0;;
68375;SDS011;55318;52.068;5.188;2023-02-28T09:44:05;1.11;;;1.0;;
68375;SDS011;55318;52.068;5.188;2023-02-28T09:47:31;1.5;;;0.9;;
68375;SDS011;55318;52.068;5.188;2023-02-28T09:49:12;0.9;;;0.9;;
68375;SDS011;55318;52.068;5.188;2023-02-28T09:50:52;1.5;;;1.0;;
68375;SDS011;55318;52.068;5.188;2023-02-28T09:52:36;1.3;;;0.9;;
68375;SDS011;55318;52.068;5.188;2023-02-28T09:55:53;0.8;;;0.8;;
68375;SDS011;55318;52.068;5.188;2023-02-28T09:57:35;3.0;;;0.9;;
68375;SDS011;55318;52.068;5.188;2023-02-28T09:59:18;1.3;;;0.6;;
68375;SDS011;55318;52.068;5.188;2023-02-28T10:01:19;0.5;;;0.5;;
68375;SDS011;55318;52.068;5.188;2023-02-28T10:03:13;0.8;;;0.7;;
68375;SDS011;55318;52.068;5.188;2023-02-28T10:05:02;1.0;;;0.6;;
68375;SDS011;55318;52.068;5.188;2023-02-28T10:08:25;0.6;;;0.5;;
68375;SDS011;55318;52.068;5.188;2023-02-28T10:10:07;0.7;;;0.6;;
68375;SDS011;55318;52.068;5.188;2023-02-28T10:11:57;1.2;;;0.7;;
68375;SDS011;55318;52.068;5.188;2023-02-28T10:13:42;3.8;;;0.6;;
68375;SDS011;55318;52.068;5.188;2023-02-28T10:15:28;1.11;;;0.8;;
68375;SDS011;55318;52.068;5.188;2023-02-28T10:18:50;2.31;;;1.0;;
68375;SDS011;55318;52.068;5.188;2023-02-28T10:20:35;0.9;;;0.8;;
68375;SDS011;55318;52.068;5.188;2023-02-28T10:22:14;0.6;;;0.6;;
68375;SDS011;55318;52.068;5.188;2023-02-28T10:23:59;1.4;;;0.8;;
68375;SDS011;55318;52.068;5.188;2023-02-28T10:25:54;1.3;;;0.6;;
68375;SDS011;55318;52.068;5.188;2023-02-28T10:29:10;1.4;;;0.8;;
68375;SDS011;55318;52.068;5.188;2023-02-28T10:32:26;0.9;;;0.8;;
68375;SDS011;55318;52.068;5.188;2023-02-28T10:35:47;1.3;;;0.7;;
68375;SDS011;55318;52.068;5.188;2023-02-28T10:37:24;1.2;;;0.8;;
68375;SDS011;55318;52.068;5.188;2023-02-28T10:39:01;0.6;;;0.6;;
68375;SDS011;55318;52.068;5.188;2023-02-28T10:41:11;1.3;;;0.8;;
68375;SDS011;55318;52.068;5.188;2023-02-28T10:42:54;1.7;;;0.8;;
68375;SDS011;55318;52.068;5.188;2023-02-28T10:46:11;1.2;;;0.9;;
68375;SDS011;55318;52.068;5.188;2023-02-28T10:47:52;1.6;;;0.6;;
68375;SDS011;55318;52.068;5.188;2023-02-28T10:49:30;1.7;;;0.7;;
68375;SDS011;55318;52.068;5.188;2023-02-28T10:51:07;0.7;;;0.7;;
68375;SDS011;55318;52.068;5.188;2023-02-28T10:54:22;0.7;;;0.7;;
68375;SDS011;55318;52.068;5.188;2023-02-28T10:56:04;0.9;;;0.6;;
68375;SDS011;55318;52.068;5.188;2023-02-28T10:57:49;0.8;;;0.7;;
68375;SDS011;55318;52.068;5.188;2023-02-28T10:59:27;0.7;;;0.6;;
68375;SDS011;55318;52.068;5.188;2023-02-28T11:02:49;0.9;;;0.9;;
68375;SDS011;55318;52.068;5.188;2023-02-28T11:04:34;1.0;;;0.9;;
68375;SDS011;55318;52.068;5.188;2023-02-28T11:06:14;0.8;;;0.8;;
68375;SDS011;55318;52.068;5.188;2023-02-28T11:07:55;2.4;;;0.9;;
68375;SDS011;55318;52.068;5.188;2023-02-28T11:11:14;1.11;;;0.8;;
68375;SDS011;55318;52.068;5.188;2023-02-28T11:12:53;0.7;;;0.5;;
68375;SDS011;55318;52.068;5.188;2023-02-28T11:14:31;1.4;;;0.7;;
68375;SDS011;55318;52.068;5.188;2023-02-28T11:16:30;0.7;;;0.6;;
68375;SDS011;55318;52.068;5.188;2023-02-28T11:18:16;0.7;;;0.7;;
68375;SDS011;55318;52.068;5.188;2023-02-28T11:21:39;0.8;;;0.6;;
68375;SDS011;55318;52.068;5.188;2023-02-28T11:23:24;2.31;;;0.8;;
68375;SDS011;55318;52.068;5.188;2023-02-28T11:25:06;1.5;;;0.8;;
68375;SDS011;55318;52.068;5.188;2023-02-28T11:26:46;1.11;;;1.0;;
68375;SDS011;55318;52.068;5.188;2023-02-28T11:30:11;1.8;;;0.6;;
68375;SDS011;55318;52.068;5.188;2023-02-28T11:32:01;1.7;;;0.6;;
68375;SDS011;55318;52.068;5.188;2023-02-28T11:33:48;2.21;;;0.7;;
68375;SDS011;55318;52.068;5.188;2023-02-28T11:35:28;1.6;;;1.11;;
68375;SDS011;55318;52.068;5.188;2023-02-28T11:37:11;0.9;;;0.6;;
68375;SDS011;55318;52.068;5.188;2023-02-28T11:40:31;2.1;;;0.7;;
68375;SDS011;55318;52.068;5.188;2023-02-28T11:42:23;0.8;;;0.8;;
68375;SDS011;55318;52.068;5.188;2023-02-28T11:45:17;1.0;;;1.0;;
68375;SDS011;55318;52.068;5.188;2023-02-28T11:47:15;1.2;;;0.6;;
68375;SDS011;55318;52.068;5.188;2023-02-28T11:49:02;0.7;;;0.7;;
68375;SDS011;55318;52.068;5.188;2023-02-28T11:50:55;1.7;;;0.7;;
68375;SDS011;55318;52.068;5.188;2023-02-28T11:52:43;1.2;;;0.6;;
68375;SDS011;55318;52.068;5.188;2023-02-28T11:54:27;0.6;;;0.6;;
68375;SDS011;55318;52.068;5.188;2023-02-28T11:56:29;0.7;;;0.7;;
68375;SDS011;55318;52.068;5.188;2023-02-28T11:58:14;2.21;;;0.7;;
68375;SDS011;55318;52.068;5.188;2023-02-28T12:00:32;1.3;;;0.6;;
68375;SDS011;55318;52.068;5.188;2023-02-28T12:02:22;1.11;;;0.7;;
68375;SDS011;55318;52.068;5.188;2023-02-28T12:05:58;0.9;;;0.8;;
68375;SDS011;55318;52.068;5.188;2023-02-28T12:07:55;1.11;;;0.7;;
68375;SDS011;55318;52.068;5.188;2023-02-28T12:09:46;0.9;;;0.7;;
68375;SDS011;55318;52.068;5.188;2023-02-28T12:11:40;0.8;;;0.7;;
68375;SDS011;55318;52.068;5.188;2023-02-28T12:13:27;1.2;;;0.5;;
68375;SDS011;55318;52.068;5.188;2023-02-28T12:15:16;2.6;;;0.8;;
68375;SDS011;55318;52.068;5.188;2023-02-28T12:18:25;0.8;;;0.7;;
68375;SDS011;55318;52.068;5.188;2023-02-28T12:20:28;3.3;;;0.7;;
68375;SDS011;55318;52.068;5.188;2023-02-28T12:22:15;1.0;;;0.7;;
68375;SDS011;55318;52.068;5.188;2023-02-28T12:24:08;0.5;;;0.5;;
68375;SDS011;55318;52.068;5.188;2023-02-28T12:26:28;1.0;;;0.8;;
68375;SDS011;55318;52.068;5.188;2023-02-28T12:28:13;1.3;;;0.7;;
68375;SDS011;55318;52.068;5.188;2023-02-28T12:29:54;0.6;;;0.6;;
68375;SDS011;55318;52.068;5.188;2023-02-28T12:31:35;1.4;;;0.7;;
68375;SDS011;55318;52.068;5.188;2023-02-28T12:34:57;1.0;;;0.9;;
68375;SDS011;55318;52.068;5.188;2023-02-28T12:36:40;1.4;;;0.8;;
68375;SDS011;55318;52.068;5.188;2023-02-28T12:38:19;1.2;;;0.7;;
68375;SDS011;55318;52.068;5.188;2023-02-28T12:40:00;1.0;;;0.7;;
68375;SDS011;55318;52.068;5.188;2023-02-28T12:43:22;0.7;;;0.7;;
68375;SDS011;55318;52.068;5.188;2023-02-28T12:45:09;0.5;;;0.5;;
68375;SDS011;55318;52.068;5.188;2023-02-28T12:46:51;1.3;;;0.6;;
68375;SDS011;55318;52.068;5.188;2023-02-28T12:48:37;1.0;;;0.7;;
68375;SDS011;55318;52.068;5.188;2023-02-28T12:50:18;0.6;;;0.6;;
68375;SDS011;55318;52.068;5.188;2023-02-28T12:53:35;0.8;;;0.5;;
68375;SDS011;55318;52.068;5.188;2023-02-28T12:55:27;1.4;;;0.8;;
68375;SDS011;55318;52.068;5.188;2023-02-28T12:57:15;1.8;;;1.11;;
68375;SDS011;55318;52.068;5.188;2023-02-28T12:59:01;0.7;;;0.7;;
68375;SDS011;55318;52.068;5.188;2023-02-28T13:00:49;1.3;;;0.7;;
68375;SDS011;55318;52.068;5.188;2023-02-28T13:03:41;1.0;;;0.9;;
68375;SDS011;55318;52.068;5.188;2023-02-28T13:05:32;1.9;;;0.8;;
68375;SDS011;55318;52.068;5.188;2023-02-28T13:08:34;0.7;;;0.7;;